Andesborg — PCLC — position and weather

sailwx.info

Track history (hours):
 
Tides and Currents Weather Stations Pressure Air Temp Water Temp Dewpoint Dewpoint Depression Visibility Wind Speed Wind Dir Waves Ship Positions

Andesborg

Last reported at 2017-Aug-20 04:05 UTC. Time now 2017-Aug-24 08:58 UTC.
Position N 39°49' E 119°40'.

Length 142 m; draft 6.3 m.

Type: Cargo ship. MMSI: 246797000.

Date/timePositionNaut miles runAvg speedWind from/ knotsBaromVisibWave heightAir tempDewpointWater temp
2017-Aug-20 04:05N 39°49' E 119°40'312.3
2017-Aug-20 03:48N 39°52' E 119°38'2 7.1
2017-Aug-20 03:30N 39°54' E 119°36'1 2.9
2017-Aug-20 03:00N 39°55' E 119°35'0 0.0
2017-Aug-20 02:20N 39°55' E 119°35'0 0.0
2017-Aug-20 01:56N 39°55' E 119°35'0 0.0
2017-Aug-20 01:26N 39°55' E 119°35'0 0.0
2017-Aug-20 00:56N 39°55' E 119°35'0 0.0
2017-Aug-20 00:20N 39°55' E 119°35'0 0.0
2017-Aug-19 23:56N 39°55' E 119°35'0 0.0
2017-Aug-19 23:26N 39°55' E 119°35'0 0.0
2017-Aug-19 22:56N 39°55' E 119°35'0 0.0
2017-Aug-19 22:26N 39°55' E 119°35'0 0.0
2017-Aug-19 21:50N 39°55' E 119°35'0 0.0
2017-Aug-19 21:14N 39°55' E 119°35'0 0.0
2017-Aug-19 20:56N 39°55' E 119°35'0 0.0
2017-Aug-19 20:20N 39°55' E 119°35'0 0.0
2017-Aug-19 19:56N 39°55' E 119°35'0 0.0
2017-Aug-19 19:26N 39°55' E 119°35'0 0.0
2017-Aug-19 18:56N 39°55' E 119°35'0 0.0
2017-Aug-19 18:20N 39°55' E 119°35'0 0.0
2017-Aug-19 17:56N 39°55' E 119°35'0 0.0
2017-Aug-19 15:26N 39°55' E 119°35'0 0.0
2017-Aug-19 13:20N 39°55' E 119°35'0 0.0
2017-Aug-19 11:50N 39°55' E 119°35'0 0.0
2017-Aug-19 11:20N 39°55' E 119°35'0 0.0
2017-Aug-19 10:56N 39°55' E 119°35'0 0.0
2017-Aug-19 10:26N 39°55' E 119°35'0 0.0
2017-Aug-19 09:56N 39°55' E 119°35'0 0.0
2017-Aug-19 09:26N 39°55' E 119°35'0 0.0
2017-Aug-19 08:44N 39°55' E 119°35'0 0.0
2017-Aug-19 08:08N 39°55' E 119°35'0 0.0
2017-Aug-19 07:32N 39°55' E 119°35'0 0.0
2017-Aug-19 07:26N 39°55' E 119°35'0 0.0
2017-Aug-19 06:56N 39°55' E 119°35'0 0.0
2017-Aug-19 06:26N 39°55' E 119°35'0 0.0
2017-Aug-19 05:56N 39°55' E 119°35'0 0.0
2017-Aug-19 05:26N 39°55' E 119°35'0 0.0
2017-Aug-19 04:50N 39°55' E 119°35'0 0.0
2017-Aug-19 04:20N 39°55' E 119°35'0 0.0
2017-Aug-19 03:56N 39°55' E 119°35'0 0.0
2017-Aug-19 03:26N 39°55' E 119°35'0 0.0
2017-Aug-19 02:56N 39°55' E 119°35'0 0.0
2017-Aug-19 02:26N 39°55' E 119°35'0 0.0
2017-Aug-19 01:56N 39°55' E 119°35'0 0.0
2017-Aug-19 01:26N 39°55' E 119°35'1 1.2
2017-Aug-19 01:00N 39°54' E 119°35'3 6.6
2017-Aug-19 00:30N 39°53' E 119°39'4 8.5
2017-Aug-19 00:00N 39°49' E 119°42'94 8.3
2017-Aug-18 12:39N 38°56' E 118°01'210.5
2017-Aug-18 12:25N 38°57' E 117°58'613.3
2017-Aug-18 12:00N 38°58' E 117°51'4 7.6
2017-Aug-18 11:29N 38°59' E 117°46'0 0.0
2017-Aug-18 10:59N 38°59' E 117°46'0 0.0
2017-Aug-18 10:23N 38°59' E 117°46'0 0.0
2017-Aug-18 09:59N 38°59' E 117°46'0 0.0
2017-Aug-18 09:29N 38°59' E 117°46'0 0.0
2017-Aug-18 08:53N 38°59' E 117°46'0 0.0
2017-Aug-18 08:23N 38°59' E 117°46'0 0.0
2017-Aug-18 07:59N 38°59' E 117°46'0 0.0
2017-Aug-18 07:29N 38°59' E 117°46'0 0.0
2017-Aug-18 06:59N 38°59' E 117°46'0 0.0
2017-Aug-18 06:29N 38°59' E 117°46'0 0.0
2017-Aug-18 05:59N 38°59' E 117°46'0 0.0
2017-Aug-18 05:29N 38°59' E 117°46'0 0.0
2017-Aug-18 04:59N 38°59' E 117°46'0 0.0
2017-Aug-18 04:23N 38°59' E 117°46'0 0.0
2017-Aug-18 03:59N 38°59' E 117°46'0 0.0
2017-Aug-18 03:29N 38°59' E 117°46'0 0.0
2017-Aug-18 02:59N 38°59' E 117°46'0 0.0
2017-Aug-18 02:29N 38°59' E 117°46'0 0.0
2017-Aug-18 01:59N 38°59' E 117°46'0 0.0
2017-Aug-18 01:23N 38°59' E 117°46'0 0.0
2017-Aug-18 00:59N 38°59' E 117°46'0 0.0
2017-Aug-18 00:17N 38°59' E 117°46'0 0.0
2017-Aug-17 23:59N 38°59' E 117°46'0 0.0
2017-Aug-17 23:29N 38°59' E 117°46'0 0.0
2017-Aug-17 22:59N 38°59' E 117°46'0 0.0
2017-Aug-17 22:29N 38°59' E 117°46'0 0.0
2017-Aug-17 21:59N 38°59' E 117°46'0 0.0
2017-Aug-17 21:29N 38°59' E 117°46'0 0.0
2017-Aug-17 20:59N 38°59' E 117°46'0 0.0
2017-Aug-17 20:29N 38°59' E 117°46'0 0.0
2017-Aug-17 19:59N 38°59' E 117°46'0 0.0
2017-Aug-17 19:29N 38°59' E 117°46'0 0.0
2017-Aug-17 19:00N 38°59' E 117°46'1 1.9
2017-Aug-17 18:30N 38°58' E 117°47'510.6
2017-Aug-17 18:00N 38°57' E 117°54'19510.9
2017-Aug-17 00:08N 38°09' E 121°55'215.1
2017-Aug-17 00:00N 38°08' E 121°58'815.2
2017-Aug-16 23:30N 38°05' E 122°06'815.1
2017-Aug-16 23:00N 38°02' E 122°15'1414.5
2017-Aug-16 22:03N 37°53' E 122°29'214.5
2017-Aug-16 21:55N 37°52' E 122°31'  
2017-Aug-14 14:38N 24°59' E 120°32'316.3
2017-Aug-14 14:26N 24°57' E 120°30'716.3
2017-Aug-14 14:00N 24°50' E 120°27'  
Track history (hours):
 
Tides and Currents Weather Stations Pressure Air Temp Water Temp Dewpoint Dewpoint Depression Visibility Wind Speed Wind Dir Waves Ship Positions

Andesborg

Last reported at 2017-Aug-20 04:05 UTC. Time now 2017-Aug-24 08:58 UTC.
Position N 39°49' E 119°40'.

Length 142 m; draft 6.3 m.

Type: Cargo ship. MMSI: 246797000.

Date/timePositionNaut miles runAvg speedWind from/ knotsBaromVisibWave heightAir tempDewpointWater temp
2017-Aug-20 04:05N 39°49' E 119°40'312.3
2017-Aug-20 03:48N 39°52' E 119°38'2 7.1
2017-Aug-20 03:30N 39°54' E 119°36'1 2.9
2017-Aug-20 03:00N 39°55' E 119°35'0 0.0
2017-Aug-20 02:20N 39°55' E 119°35'0 0.0
2017-Aug-20 01:56N 39°55' E 119°35'0 0.0
2017-Aug-20 01:26N 39°55' E 119°35'0 0.0
2017-Aug-20 00:56N 39°55' E 119°35'0 0.0
2017-Aug-20 00:20N 39°55' E 119°35'0 0.0
2017-Aug-19 23:56N 39°55' E 119°35'0 0.0
2017-Aug-19 23:26N 39°55' E 119°35'0 0.0
2017-Aug-19 22:56N 39°55' E 119°35'0 0.0
2017-Aug-19 22:26N 39°55' E 119°35'0 0.0
2017-Aug-19 21:50N 39°55' E 119°35'0 0.0
2017-Aug-19 21:14N 39°55' E 119°35'0 0.0
2017-Aug-19 20:56N 39°55' E 119°35'0 0.0
2017-Aug-19 20:20N 39°55' E 119°35'0 0.0
2017-Aug-19 19:56N 39°55' E 119°35'0 0.0
2017-Aug-19 19:26N 39°55' E 119°35'0 0.0
2017-Aug-19 18:56N 39°55' E 119°35'0 0.0
2017-Aug-19 18:20N 39°55' E 119°35'0 0.0
2017-Aug-19 17:56N 39°55' E 119°35'0 0.0
2017-Aug-19 15:26N 39°55' E 119°35'0 0.0
2017-Aug-19 13:20N 39°55' E 119°35'0 0.0
2017-Aug-19 11:50N 39°55' E 119°35'0 0.0
2017-Aug-19 11:20N 39°55' E 119°35'0 0.0
2017-Aug-19 10:56N 39°55' E 119°35'0 0.0
2017-Aug-19 10:26N 39°55' E 119°35'0 0.0
2017-Aug-19 09:56N 39°55' E 119°35'0 0.0
2017-Aug-19 09:26N 39°55' E 119°35'0 0.0
2017-Aug-19 08:44N 39°55' E 119°35'0 0.0
2017-Aug-19 08:08N 39°55' E 119°35'0 0.0
2017-Aug-19 07:32N 39°55' E 119°35'0 0.0
2017-Aug-19 07:26N 39°55' E 119°35'0 0.0
2017-Aug-19 06:56N 39°55' E 119°35'0 0.0
2017-Aug-19 06:26N 39°55' E 119°35'0 0.0
2017-Aug-19 05:56N 39°55' E 119°35'0 0.0
2017-Aug-19 05:26N 39°55' E 119°35'0 0.0
2017-Aug-19 04:50N 39°55' E 119°35'0 0.0
2017-Aug-19 04:20N 39°55' E 119°35'0 0.0
2017-Aug-19 03:56N 39°55' E 119°35'0 0.0
2017-Aug-19 03:26N 39°55' E 119°35'0 0.0
2017-Aug-19 02:56N 39°55' E 119°35'0 0.0
2017-Aug-19 02:26N 39°55' E 119°35'0 0.0
2017-Aug-19 01:56N 39°55' E 119°35'0 0.0
2017-Aug-19 01:26N 39°55' E 119°35'1 1.2
2017-Aug-19 01:00N 39°54' E 119°35'3 6.6
2017-Aug-19 00:30N 39°53' E 119°39'4 8.5
2017-Aug-19 00:00N 39°49' E 119°42'94 8.3
2017-Aug-18 12:39N 38°56' E 118°01'210.5
2017-Aug-18 12:25N 38°57' E 117°58'613.3
2017-Aug-18 12:00N 38°58' E 117°51'4 7.6
2017-Aug-18 11:29N 38°59' E 117°46'0 0.0
2017-Aug-18 10:59N 38°59' E 117°46'0 0.0
2017-Aug-18 10:23N 38°59' E 117°46'0 0.0
2017-Aug-18 09:59N 38°59' E 117°46'0 0.0
2017-Aug-18 09:29N 38°59' E 117°46'0 0.0
2017-Aug-18 08:53N 38°59' E 117°46'0 0.0
2017-Aug-18 08:23N 38°59' E 117°46'0 0.0
2017-Aug-18 07:59N 38°59' E 117°46'0 0.0
2017-Aug-18 07:29N 38°59' E 117°46'0 0.0
2017-Aug-18 06:59N 38°59' E 117°46'0 0.0
2017-Aug-18 06:29N 38°59' E 117°46'0 0.0
2017-Aug-18 05:59N 38°59' E 117°46'0 0.0
2017-Aug-18 05:29N 38°59' E 117°46'0 0.0
2017-Aug-18 04:59N 38°59' E 117°46'0 0.0
2017-Aug-18 04:23N 38°59' E 117°46'0 0.0
2017-Aug-18 03:59N 38°59' E 117°46'0 0.0
2017-Aug-18 03:29N 38°59' E 117°46'0 0.0
2017-Aug-18 02:59N 38°59' E 117°46'0 0.0
2017-Aug-18 02:29N 38°59' E 117°46'0 0.0
2017-Aug-18 01:59N 38°59' E 117°46'0 0.0
2017-Aug-18 01:23N 38°59' E 117°46'0 0.0
2017-Aug-18 00:59N 38°59' E 117°46'0 0.0
2017-Aug-18 00:17N 38°59' E 117°46'0 0.0
2017-Aug-17 23:59N 38°59' E 117°46'0 0.0
2017-Aug-17 23:29N 38°59' E 117°46'0 0.0
2017-Aug-17 22:59N 38°59' E 117°46'0 0.0
2017-Aug-17 22:29N 38°59' E 117°46'0 0.0
2017-Aug-17 21:59N 38°59' E 117°46'0 0.0
2017-Aug-17 21:29N 38°59' E 117°46'0 0.0
2017-Aug-17 20:59N 38°59' E 117°46'0 0.0
2017-Aug-17 20:29N 38°59' E 117°46'0 0.0
2017-Aug-17 19:59N 38°59' E 117°46'0 0.0
2017-Aug-17 19:29N 38°59' E 117°46'0 0.0
2017-Aug-17 19:00N 38°59' E 117°46'1 1.9
2017-Aug-17 18:30N 38°58' E 117°47'510.6
2017-Aug-17 18:00N 38°57' E 117°54'19510.9
2017-Aug-17 00:08N 38°09' E 121°55'215.1
2017-Aug-17 00:00N 38°08' E 121°58'815.2
2017-Aug-16 23:30N 38°05' E 122°06'815.1
2017-Aug-16 23:00N 38°02' E 122°15'1414.5
2017-Aug-16 22:03N 37°53' E 122°29'214.5
2017-Aug-16 21:55N 37°52' E 122°31'  
2017-Aug-14 14:38N 24°59' E 120°32'316.3
2017-Aug-14 14:26N 24°57' E 120°30'716.3
2017-Aug-14 14:00N 24°50' E 120°27'  

Dump ship's entire track history